KFFL/FFL METAR and TAF weather

Enter ICAO airport designator
Station Type Date Time Source
KFFL METAR 2024/04/15 10:15 UTC NOAA

KFFL 151015Z AUTO 36007KT 10SM CLR 07/M01 A2992 RMK A01


Station Type Date Time Source
KFFL Decoded METAR 2024/04/15 10:15 UTC NOAA

Fair Field, IA, United States (KFFL) 41-03N 091-59W
Apr 15, 2024 - 06:15 AM EDT / 2024.04.15 1015 UTC
Wind: from the N (360 degrees) at 8 MPH (7 KT):0
Visibility: 10 mile(s):0
Sky conditions: clear
Temperature: 44 F (7 C)
Dew Point: 30 F (-1 C)
Relative Humidity: 56%
Pressure (altimeter): 29.92 in. Hg (1013 hPa)
ob: KFFL 151015Z AUTO 36007KT 10SM CLR 07/M01 A2992 RMK A01
cycle: 10

Station Type Date Time Source
KFFL TAF UTC NOAA

Error!

Example: see airport list